Time;durP1;ratioP1;P1;durP2;ratioP2;P2;SDS_P1;SDS_P2;PMS_P1;PMS_P2;Temp;Humidity;BMP_temperature;BMP_pressure;BME280_temperature;BME280_humidity;BME280_pressure;Samples;Min_cycle;Max_cycle;Signal;HPM_P1;HPM_P2
2023/04/21 00:01:26;;;;;;;20.30;9.93;;;8.30;99.90;;;;;;5006142;28;20129;-56
2023/04/21 00:03:54;;;;;;;22.88;10.40;;;8.30;99.90;;;;;;4992587;28;20097;-56
2023/04/21 00:06:22;;;;;;;22.35;9.02;;;8.30;99.90;;;;;;5005901;28;20080;-55
2023/04/21 00:08:49;;;;;;;21.50;10.38;;;8.30;99.90;;;;;;4993849;28;20240;-55
2023/04/21 00:11:16;;;;;;;23.10;9.50;;;8.30;99.90;;;;;;5004202;28;20421;-55
2023/04/21 00:13:43;;;;;;;24.55;9.63;;;8.40;99.90;;;;;;4995655;28;20165;-54
2023/04/21 00:16:10;;;;;;;19.55;10.18;;;8.20;99.90;;;;;;5003466;28;20049;-54
2023/04/21 00:18:36;;;;;;;24.23;9.10;;;8.20;99.90;;;;;;5000039;28;20046;-54
2023/04/21 00:21:03;;;;;;;17.05;9.52;;;8.20;99.90;;;;;;5001815;28;20057;-55
2023/04/21 00:23:30;;;;;;;16.75;9.57;;;8.20;99.90;;;;;;4999812;28;20155;-55
2023/04/21 00:25:57;;;;;;;19.33;9.70;;;8.20;99.90;;;;;;4999310;28;20050;-55
2023/04/21 00:28:23;;;;;;;22.75;11.60;;;8.20;99.90;;;;;;4998030;28;20054;-55
2023/04/21 00:30:50;;;;;;;26.10;10.75;;;8.30;99.90;;;;;;5000389;28;20047;-54
2023/04/21 00:33:17;;;;;;;25.40;11.48;;;8.30;99.90;;;;;;4997891;28;20050;-56
2023/04/21 00:35:43;;;;;;;26.35;11.77;;;8.20;99.90;;;;;;5000232;28;20052;-55
2023/04/21 00:38:10;;;;;;;22.60;10.00;;;8.20;99.90;;;;;;5001313;28;20049;-56
2023/04/21 00:40:37;;;;;;;24.95;10.55;;;8.20;99.90;;;;;;5001210;28;20048;-54
2023/04/21 00:43:06;;;;;;;20.27;10.18;;;8.20;99.90;;;;;;4994074;28;20053;-55
2023/04/21 00:45:33;;;;;;;17.92;9.88;;;8.20;99.90;;;;;;5001339;28;20057;-55
2023/04/21 00:48:00;;;;;;;22.60;11.05;;;8.20;99.90;;;;;;4990743;28;20785;-53
2023/04/21 00:50:27;;;;;;;28.60;13.50;;;8.20;99.90;;;;;;5002840;28;20069;-54
2023/04/21 00:52:53;;;;;;;23.42;10.98;;;8.20;99.90;;;;;;4991797;28;20056;-53
2023/04/21 00:55:20;;;;;;;25.30;11.70;;;8.20;99.90;;;;;;5000544;28;20087;-54
2023/04/21 00:57:47;;;;;;;27.17;11.15;;;8.20;99.90;;;;;;4992978;28;20054;-55
2023/04/21 01:00:15;;;;;;;22.98;11.35;;;8.30;99.90;;;;;;5000784;28;20728;-55
2023/04/21 01:02:44;;;;;;;29.88;13.52;;;8.30;99.90;;;;;;4994042;28;20133;-55
2023/04/21 01:05:11;;;;;;;27.33;12.93;;;8.30;99.90;;;;;;4999911;28;20064;-55
2023/04/21 01:07:38;;;;;;;29.05;11.88;;;8.20;99.90;;;;;;4995479;28;20280;-57
2023/04/21 01:10:07;;;;;;;27.65;12.07;;;8.20;99.90;;;;;;4998896;28;20042;-57
2023/04/21 01:12:40;;;;;;;26.25;11.70;;;8.20;99.90;;;;;;4997608;28;20062;-56
2023/04/21 01:15:07;;;;;;;;;;;8.30;99.90;;;;;;4996076;28;20493;-56
2023/04/21 01:17:37;;;;;;;27.50;12.05;;;8.20;99.90;;;;;;4997286;28;19922;-55
2023/04/21 01:20:09;;;;;;;27.52;11.40;;;8.20;99.90;;;;;;4997232;28;20092;-55
2023/04/21 01:22:46;;;;;;;32.47;12.32;;;8.30;99.90;;;;;;4998175;28;20050;-54
2023/04/21 01:25:13;;;;;;;30.65;11.38;;;8.20;99.90;;;;;;4645985;28;9999844;-56
2023/04/21 01:27:40;;;;;;;20.95;11.57;;;8.20;99.90;;;;;;4996841;28;20056;-53
2023/04/21 01:30:08;;;;;;;18.35;10.88;;;8.30;99.90;;;;;;4999123;28;20401;-56
2023/04/21 01:32:35;;;;;;;25.00;11.55;;;8.30;99.90;;;;;;4997265;28;20308;-56
2023/04/21 01:35:02;;;;;;;31.63;12.00;;;8.30;99.90;;;;;;4999193;28;20142;-58
2023/04/21 01:37:30;;;;;;;22.90;11.65;;;8.20;99.90;;;;;;4992589;28;20101;-55
2023/04/21 01:39:58;;;;;;;31.98;12.32;;;8.20;99.90;;;;;;4992420;28;20093;-57
2023/04/21 01:42:26;;;;;;;26.33;12.43;;;8.20;99.90;;;;;;4992031;28;20322;-55
2023/04/21 01:44:53;;;;;;;30.55;13.00;;;8.20;99.90;;;;;;5002740;28;20049;-55
2023/04/21 01:47:20;;;;;;;30.85;14.73;;;8.20;99.90;;;;;;4990927;28;20058;-54
2023/04/21 01:49:47;;;;;;;29.52;13.13;;;8.20;99.90;;;;;;5005691;28;20049;-52
2023/04/21 01:52:13;;;;;;;23.90;11.70;;;8.20;99.90;;;;;;4992057;28;20058;-55
2023/04/21 01:54:40;;;;;;;30.35;12.40;;;8.20;99.90;;;;;;4995841;28;20089;-56
2023/04/21 01:57:07;;;;;;;33.35;12.18;;;8.20;99.90;;;;;;5000073;28;20050;-56
2023/04/21 01:59:34;;;;;;;23.88;12.30;;;8.20;99.90;;;;;;4993818;28;20046;-56
2023/04/21 02:02:00;;;;;;;24.42;12.55;;;8.20;99.90;;;;;;4999571;28;20239;-55
2023/04/21 02:04:27;;;;;;;27.48;13.93;;;8.20;99.90;;;;;;4995666;28;20124;-56
2023/04/21 02:06:54;;;;;;;22.30;12.63;;;8.10;99.90;;;;;;4997855;28;20505;-56
2023/04/21 02:09:21;;;;;;;25.80;12.65;;;8.10;99.90;;;;;;4997964;28;20074;-55
2023/04/21 02:11:48;;;;;;;23.65;12.23;;;8.00;99.90;;;;;;4996838;28;20053;-54
2023/04/21 02:14:15;;;;;;;32.40;15.63;;;8.00;99.90;;;;;;4998803;28;20050;-55
2023/04/21 02:16:41;;;;;;;25.15;13.82;;;7.90;99.90;;;;;;4996662;28;20360;-56
2023/04/21 02:19:08;;;;;;;28.73;14.93;;;7.80;99.90;;;;;;4998973;28;20132;-55
2023/04/21 02:21:35;;;;;;;25.05;13.40;;;7.80;99.90;;;;;;4995324;28;20068;-56
2023/04/21 02:24:02;;;;;;;28.42;14.05;;;7.70;99.90;;;;;;4994910;28;20233;-56
2023/04/21 02:26:29;;;;;;;26.17;12.60;;;7.70;99.90;;;;;;5002619;28;20405;-55
2023/04/21 02:28:55;;;;;;;33.75;14.30;;;7.70;99.90;;;;;;4986823;28;20053;-55
2023/04/21 02:31:22;;;;;;;27.85;13.65;;;7.70;99.90;;;;;;5008084;28;20046;-55
2023/04/21 02:33:49;;;;;;;29.38;13.45;;;7.60;99.90;;;;;;4996263;28;20056;-57
2023/04/21 02:36:16;;;;;;;27.38;12.57;;;7.60;99.90;;;;;;5000984;28;20042;-55
2023/04/21 02:38:42;;;;;;;24.20;13.95;;;7.50;99.90;;;;;;5006492;28;20571;-54
2023/04/21 02:41:09;;;;;;;31.05;14.52;;;7.50;99.90;;;;;;4994582;28;20084;-56
2023/04/21 02:43:36;;;;;;;34.13;13.50;;;7.40;99.90;;;;;;4999122;28;20046;-54
2023/04/21 02:46:06;;;;;;;32.72;13.55;;;7.50;99.90;;;;;;5005164;28;20057;-52
2023/04/21 02:48:34;;;;;;;24.88;12.43;;;7.50;99.90;;;;;;4997816;28;20137;-56
2023/04/21 02:51:01;;;;;;;33.33;12.63;;;7.40;99.90;;;;;;5002211;28;20084;-55
2023/04/21 02:53:27;;;;;;;28.63;13.93;;;7.30;99.90;;;;;;4998723;28;20148;-54
2023/04/21 02:55:55;;;;;;;30.17;13.63;;;7.30;99.90;;;;;;5002589;28;20050;-55
2023/04/21 02:58:22;;;;;;;32.25;13.25;;;7.30;99.90;;;;;;5001742;28;20101;-58
2023/04/21 03:00:48;;;;;;;26.25;13.50;;;7.30;99.90;;;;;;5000197;28;20069;-54
2023/04/21 03:03:15;;;;;;;27.77;12.95;;;7.20;99.90;;;;;;5000591;28;20055;-55
2023/04/21 03:05:42;;;;;;;31.95;13.45;;;7.20;99.90;;;;;;5002037;28;20497;-55
2023/04/21 03:08:09;;;;;;;35.03;13.68;;;7.20;99.90;;;;;;4998453;28;20057;-56
2023/04/21 03:10:37;;;;;;;33.28;13.95;;;7.20;99.90;;;;;;4998052;28;20042;-55
2023/04/21 03:13:03;;;;;;;32.55;14.52;;;7.10;99.90;;;;;;5003803;28;20421;-55
2023/04/21 03:15:30;;;;;;;27.50;12.63;;;7.20;99.90;;;;;;5002698;28;20512;-56
2023/04/21 03:17:57;;;;;;;33.55;14.93;;;7.20;99.90;;;;;;5007285;28;20054;-53
2023/04/21 03:20:23;;;;;;;34.95;15.48;;;7.20;99.90;;;;;;4994434;28;20449;-55
2023/04/21 03:22:52;;;;;;;27.73;15.35;;;7.20;99.90;;;;;;5007782;28;20049;-56
2023/04/21 03:25:19;;;;;;;27.83;13.18;;;7.20;99.90;;;;;;4994183;28;20084;-56
2023/04/21 03:27:46;;;;;;;33.28;12.45;;;7.20;99.90;;;;;;5005861;28;20512;-53
2023/04/21 03:30:13;;;;;;;33.70;13.88;;;7.20;99.90;;;;;;4995224;28;20038;-56
2023/04/21 03:32:39;;;;;;;22.73;13.90;;;7.20;99.90;;;;;;5004140;28;20049;-52
2023/04/21 03:35:06;;;;;;;22.83;14.23;;;7.30;99.90;;;;;;4998463;28;20129;-54
2023/04/21 03:37:33;;;;;;;25.48;13.10;;;7.30;99.90;;;;;;5001448;28;20053;-56
2023/04/21 03:40:00;;;;;;;24.35;13.35;;;7.30;99.90;;;;;;4998268;28;20046;-53
2023/04/21 03:42:28;;;;;;;28.08;15.23;;;7.30;99.90;;;;;;5000578;28;20050;-56
2023/04/21 03:44:55;;;;;;;26.52;14.77;;;7.20;99.90;;;;;;4999738;28;20062;-56
2023/04/21 03:47:22;;;;;;;31.80;14.25;;;7.20;99.90;;;;;;4997559;28;20100;-51
2023/04/21 03:49:49;;;;;;;25.45;14.57;;;7.30;99.90;;;;;;5000510;28;20042;-53
2023/04/21 03:52:16;;;;;;;26.70;13.95;;;7.20;99.90;;;;;;4998315;28;20427;-55
2023/04/21 03:54:42;;;;;;;33.20;14.77;;;7.20;99.90;;;;;;5003084;28;20046;-53
2023/04/21 03:57:09;;;;;;;30.80;14.55;;;7.20;99.90;;;;;;5002266;28;20108;-55
2023/04/21 03:59:36;;;;;;;29.45;13.93;;;7.20;99.90;;;;;;4993928;28;20129;-53
2023/04/21 04:02:03;;;;;;;29.67;15.80;;;7.20;99.90;;;;;;5004104;28;20046;-54
2023/04/21 04:04:30;;;;;;;29.30;16.58;;;7.20;99.90;;;;;;4999576;28;20046;-55
2023/04/21 04:06:57;;;;;;;30.35;15.88;;;7.20;99.90;;;;;;5005170;28;20065;-55
2023/04/21 04:09:24;;;;;;;29.02;15.07;;;7.20;99.90;;;;;;4991942;28;20042;-55
2023/04/21 04:11:51;;;;;;;27.50;14.80;;;7.30;99.90;;;;;;5004534;28;20042;-55
2023/04/21 04:14:17;;;;;;;30.85;15.80;;;7.20;99.90;;;;;;4994049;28;20132;-53
2023/04/21 04:16:44;;;;;;;32.53;15.32;;;7.20;99.90;;;;;;5001048;28;20100;-55
2023/04/21 04:19:11;;;;;;;32.55;14.55;;;7.20;99.90;;;;;;4995182;28;20133;-56
2023/04/21 04:21:38;;;;;;;26.35;14.45;;;7.10;99.90;;;;;;4996757;28;20039;-54
2023/04/21 04:24:04;;;;;;;32.67;15.48;;;7.10;99.90;;;;;;5001770;28;20057;-51
2023/04/21 04:26:37;;;;;;;40.30;15.35;;;7.10;99.90;;;;;;4999092;28;20136;-54
2023/04/21 04:29:04;;;;;;;33.58;14.88;;;7.10;99.90;;;;;;4997060;28;20082;-55
2023/04/21 04:31:31;;;;;;;37.08;16.60;;;7.10;99.90;;;;;;4995385;28;20049;-55
2023/04/21 04:33:58;;;;;;;27.20;13.50;;;7.10;99.90;;;;;;4999010;28;20124;-54
2023/04/21 04:36:26;;;;;;;29.98;13.80;;;7.10;99.90;;;;;;4998692;28;20124;-54
2023/04/21 04:38:53;;;;;;;31.50;14.32;;;7.20;99.90;;;;;;5000437;28;20050;-55
2023/04/21 04:41:21;;;;;;;33.72;13.70;;;7.10;99.90;;;;;;4996521;28;20061;-54
2023/04/21 04:43:48;;;;;;;28.77;14.18;;;7.20;99.90;;;;;;5001290;28;20108;-54
2023/04/21 04:46:14;;;;;;;35.65;14.73;;;7.20;99.90;;;;;;4995417;28;20111;-54
2023/04/21 04:48:41;;;;;;;32.22;16.20;;;7.20;99.90;;;;;;4999394;28;20504;-56
2023/04/21 04:51:08;;;;;;;29.25;14.25;;;7.40;99.90;;;;;;4992533;28;20145;-54
2023/04/21 04:53:35;;;;;;;37.90;15.43;;;7.30;99.90;;;;;;4999588;28;20283;-55
2023/04/21 04:56:01;;;;;;;32.70;15.48;;;7.30;99.90;;;;;;4990698;28;20046;-55
2023/04/21 04:58:28;;;;;;;32.35;15.80;;;7.30;99.90;;;;;;5004580;28;20077;-53
2023/04/21 05:00:55;;;;;;;30.85;15.65;;;7.30;99.90;;;;;;4992575;28;20049;-55
2023/04/21 05:03:21;;;;;;;32.75;15.30;;;7.30;99.90;;;;;;5000805;28;20071;-54
2023/04/21 05:05:48;;;;;;;39.33;15.70;;;7.30;99.90;;;;;;4994338;28;20513;-52
2023/04/21 05:08:15;;;;;;;32.47;15.35;;;7.30;99.90;;;;;;5000402;28;20060;-54
2023/04/21 05:10:43;;;;;;;34.10;15.55;;;7.40;99.90;;;;;;4995978;28;20047;-53
2023/04/21 05:13:10;;;;;;;34.53;14.63;;;7.40;99.90;;;;;;4998718;28;20056;-57
2023/04/21 05:15:37;;;;;;;38.50;15.30;;;7.50;99.90;;;;;;4997705;28;20059;-53
2023/04/21 05:18:04;;;;;;;29.83;14.30;;;7.50;99.90;;;;;;4997902;28;20068;-56
2023/04/21 05:20:30;;;;;;;33.97;15.60;;;7.60;99.90;;;;;;4999714;28;20042;-55
2023/04/21 05:22:57;;;;;;;25.30;13.88;;;7.60;99.90;;;;;;4997519;28;20056;-53
2023/04/21 05:25:24;;;;;;;31.10;14.80;;;7.60;99.90;;;;;;4999674;28;20078;-55
2023/04/21 05:27:50;;;;;;;34.78;14.32;;;7.60;99.90;;;;;;4995030;28;20053;-55
2023/04/21 05:30:17;;;;;;;42.65;15.23;;;7.70;99.90;;;;;;5000632;28;20048;-54
2023/04/21 05:32:44;;;;;;;37.30;15.82;;;7.70;99.90;;;;;;4992789;28;20121;-53
2023/04/21 05:35:11;;;;;;;33.00;16.25;;;7.70;99.90;;;;;;5002257;28;20050;-56
2023/04/21 05:37:37;;;;;;;35.67;15.07;;;7.70;99.90;;;;;;4991644;28;20042;-57
2023/04/21 05:40:05;;;;;;;35.35;15.52;;;7.80;99.90;;;;;;5000401;28;20054;-52
2023/04/21 05:42:32;;;;;;;34.97;15.00;;;7.80;99.90;;;;;;5006799;28;20100;-54
2023/04/21 05:44:59;;;;;;;33.70;14.35;;;7.80;99.90;;;;;;4992267;28;20145;-54
2023/04/21 05:47:26;;;;;;;42.00;16.65;;;7.90;99.90;;;;;;5003781;28;20052;-55
2023/04/21 05:49:52;;;;;;;32.05;15.88;;;8.10;99.90;;;;;;4994947;28;20452;-55
2023/04/21 05:52:22;;;;;;;31.33;15.48;;;7.90;99.90;;;;;;5002327;28;20088;-54
2023/04/21 05:54:49;;;;;;;32.28;15.13;;;8.00;99.90;;;;;;4999518;28;20104;-54
2023/04/21 05:57:16;;;;;;;30.48;14.57;;;8.00;99.90;;;;;;4995241;28;20137;-55
2023/04/21 05:59:43;;;;;;;34.78;14.10;;;8.00;99.90;;;;;;4998968;28;20129;-55
2023/04/21 06:02:10;;;;;;;31.20;13.55;;;8.00;99.90;;;;;;4999892;28;20042;-55
2023/04/21 06:04:37;;;;;;;26.67;13.73;;;8.00;99.90;;;;;;5000309;28;20042;-54
2023/04/21 06:07:09;;;;;;;27.75;13.68;;;8.00;99.90;;;;;;4653085;28;9999748;-53
2023/04/21 06:09:35;;;;;;;32.70;15.02;;;8.00;99.90;;;;;;4994205;28;20054;-58
2023/04/21 06:12:02;;;;;;;25.00;14.15;;;8.00;99.90;;;;;;4996745;28;20272;-54
2023/04/21 06:14:29;;;;;;;30.08;13.32;;;8.00;99.90;;;;;;4998298;28;20050;-54
2023/04/21 06:16:56;;;;;;;32.65;14.15;;;8.00;99.90;;;;;;4993132;28;20049;-55
2023/04/21 06:19:23;;;;;;;24.17;13.45;;;8.10;99.90;;;;;;4995692;28;20051;-55
2023/04/21 06:21:49;;;;;;;32.40;12.85;;;8.10;99.90;;;;;;4993575;28;20050;-59
2023/04/21 06:24:23;;;;;;;27.02;13.02;;;8.10;99.90;;;;;;5003880;28;20365;-53
2023/04/21 06:26:51;;;;;;;25.30;12.25;;;8.10;99.90;;;;;;4991737;28;20085;-55
2023/04/21 06:29:19;;;;;;;31.63;13.27;;;8.20;99.90;;;;;;5003792;28;20049;-58
2023/04/21 06:31:46;;;;;;;26.65;12.50;;;8.20;99.90;;;;;;4992046;28;20058;-55
2023/04/21 06:34:13;;;;;;;25.95;12.25;;;8.30;99.90;;;;;;5003779;28;20110;-54
2023/04/21 06:36:39;;;;;;;29.02;11.88;;;8.20;99.90;;;;;;4990889;28;20038;-54
2023/04/21 06:39:06;;;;;;;31.83;12.77;;;8.20;99.90;;;;;;5005201;28;20180;-57
2023/04/21 06:41:33;;;;;;;23.05;10.93;;;8.30;99.90;;;;;;5003813;28;20164;-56
2023/04/21 06:44:00;;;;;;;23.23;12.98;;;8.40;99.90;;;;;;4992293;28;20409;-55
2023/04/21 06:46:27;;;;;;;19.70;10.10;;;8.40;99.90;;;;;;4995857;28;20077;-53
2023/04/21 06:48:53;;;;;;;19.92;12.38;;;8.50;99.90;;;;;;4999757;28;20080;-55
2023/04/21 06:51:20;;;;;;;24.77;10.27;;;8.60;99.90;;;;;;4996976;28;20500;-56
2023/04/21 06:53:47;;;;;;;23.10;10.35;;;8.60;99.90;;;;;;4990881;28;20503;-54
2023/04/21 06:56:14;;;;;;;20.42;11.20;;;8.60;99.90;;;;;;4994667;28;20294;-55
2023/04/21 06:58:41;;;;;;;25.48;11.95;;;8.50;99.90;;;;;;4997551;28;20070;-60
2023/04/21 07:01:07;;;;;;;26.77;11.60;;;8.50;99.90;;;;;;4995418;28;20088;-52
2023/04/21 07:03:34;;;;;;;23.45;10.43;;;8.60;99.90;;;;;;4997519;28;20127;-54
2023/04/21 07:06:01;;;;;;;20.38;11.18;;;8.50;99.90;;;;;;4996093;28;20076;-54
2023/04/21 07:08:28;;;;;;;18.42;10.13;;;8.40;99.90;;;;;;4999355;28;20050;-57
2023/04/21 07:10:55;;;;;;;23.00;11.15;;;8.50;99.90;;;;;;4991868;28;20045;-55
2023/04/21 07:13:22;;;;;;;19.05;9.93;;;8.50;99.90;;;;;;5001274;28;20492;-52
2023/04/21 07:15:48;;;;;;;17.08;10.35;;;8.60;99.90;;;;;;4989393;28;20050;-54
2023/04/21 07:18:15;;;;;;;15.27;9.23;;;8.50;99.90;;;;;;5002236;28;20416;-54
2023/04/21 07:20:42;;;;;;;18.55;9.88;;;8.60;99.90;;;;;;4989439;28;20061;-56
2023/04/21 07:23:09;;;;;;;14.18;8.52;;;8.50;99.90;;;;;;5000616;28;20053;-54
2023/04/21 07:25:36;;;;;;;18.70;8.45;;;8.60;99.90;;;;;;4991655;28;20517;-55
2023/04/21 07:28:03;;;;;;;20.65;9.68;;;8.60;99.90;;;;;;4993840;28;20088;-56
2023/04/21 07:30:30;;;;;;;22.45;8.98;;;8.60;99.90;;;;;;4990995;28;20270;-56
2023/04/21 07:32:57;;;;;;;16.65;8.07;;;8.60;99.90;;;;;;5001649;28;20050;-54
2023/04/21 07:35:24;;;;;;;17.70;7.97;;;8.60;99.90;;;;;;4997664;28;20046;-55
2023/04/21 07:37:51;;;;;;;19.33;8.48;;;8.60;99.90;;;;;;4997801;28;20054;-55
2023/04/21 07:40:17;;;;;;;11.10;7.60;;;8.60;99.90;;;;;;5001225;28;20500;-52
2023/04/21 07:42:44;;;;;;;15.10;8.63;;;8.50;99.90;;;;;;5002857;28;20042;-55
2023/04/21 07:45:11;;;;;;;16.80;9.48;;;8.50;99.90;;;;;;5000450;28;20046;-56
2023/04/21 07:47:38;;;;;;;17.20;8.98;;;8.60;99.90;;;;;;4997426;28;20050;-54
2023/04/21 07:50:05;;;;;;;19.25;8.48;;;8.60;99.90;;;;;;4998783;28;20081;-55
2023/04/21 07:52:32;;;;;;;13.20;8.25;;;8.60;99.90;;;;;;5003272;28;20476;-54
2023/04/21 07:54:59;;;;;;;16.65;8.85;;;8.60;99.90;;;;;;4995600;28;20056;-54
2023/04/21 07:57:25;;;;;;;12.68;8.40;;;8.60;99.90;;;;;;5003172;28;20137;-55
2023/04/21 07:59:52;;;;;;;15.57;8.88;;;8.60;99.90;;;;;;4993180;28;20521;-55
2023/04/21 08:02:19;;;;;;;15.75;8.77;;;8.50;99.90;;;;;;5006532;28;20048;-55
2023/04/21 08:04:46;;;;;;;15.15;8.32;;;8.50;99.90;;;;;;4992166;28;20062;-56
2023/04/21 08:07:14;;;;;;;14.63;7.70;;;8.50;99.90;;;;;;5005958;28;20047;-55
2023/04/21 08:09:41;;;;;;;15.52;9.18;;;8.40;99.90;;;;;;4993795;28;20082;-54
2023/04/21 08:12:08;;;;;;;18.77;9.88;;;8.50;99.90;;;;;;5003902;28;20137;-53
2023/04/21 08:14:35;;;;;;;20.17;9.82;;;8.50;99.90;;;;;;4995986;28;20046;-53
2023/04/21 08:17:02;;;;;;;15.48;9.18;;;8.50;99.90;;;;;;5003193;28;20045;-53
2023/04/21 08:19:28;;;;;;;14.70;9.55;;;8.50;99.90;;;;;;5001174;28;20119;-51
2023/04/21 08:21:56;;;;;;;16.85;10.13;;;8.50;99.90;;;;;;4997682;28;20050;-52
2023/04/21 08:24:23;;;;;;;18.23;9.50;;;8.50;99.90;;;;;;4997651;28;20525;-54
2023/04/21 08:26:50;;;;;;;19.85;9.68;;;8.50;99.90;;;;;;4999355;28;20046;-53
2023/04/21 08:29:16;;;;;;;15.95;9.10;;;8.50;99.90;;;;;;4996514;28;20046;-52
2023/04/21 08:31:43;;;;;;;15.25;8.55;;;8.50;99.90;;;;;;4999346;28;20065;-52
2023/04/21 08:34:10;;;;;;;14.95;9.75;;;8.50;99.90;;;;;;4996323;28;20050;-53
2023/04/21 08:36:36;;;;;;;15.55;9.10;;;8.50;99.90;;;;;;4998990;28;20053;-53
2023/04/21 08:39:03;;;;;;;12.38;7.78;;;8.50;99.90;;;;;;4995812;28;20424;-54
2023/04/21 08:41:30;;;;;;;17.27;7.88;;;8.40;99.90;;;;;;5002107;28;20530;-51
2023/04/21 08:43:57;;;;;;;12.45;9.15;;;8.40;99.90;;;;;;4993393;28;20337;-55
2023/04/21 08:46:23;;;;;;;12.18;8.73;;;8.40;99.90;;;;;;5002408;28;20052;-55
2023/04/21 08:48:50;;;;;;;17.65;9.65;;;8.40;99.90;;;;;;4991694;28;20050;-52
2023/04/21 08:51:22;;;;;;;15.85;9.40;;;8.40;99.90;;;;;;5004333;28;20058;-53
2023/04/21 08:53:49;;;;;;;13.80;9.43;;;8.40;99.90;;;;;;4994027;28;20145;-55
2023/04/21 08:56:15;;;;;;;15.40;9.13;;;8.40;99.90;;;;;;4996640;28;20050;-55
2023/04/21 08:58:42;;;;;;;17.13;9.73;;;8.30;99.90;;;;;;4993653;28;20105;-55
2023/04/21 09:01:09;;;;;;;18.65;9.23;;;8.30;99.90;;;;;;5001451;28;20056;-53
2023/04/21 09:03:36;;;;;;;15.52;8.20;;;8.30;99.90;;;;;;4994696;28;20050;-55
2023/04/21 09:06:05;;;;;;;17.10;8.82;;;8.30;99.90;;;;;;4992449;28;20038;-55
2023/04/21 09:08:37;;;;;;;11.57;8.52;;;8.30;99.90;;;;;;4999481;28;20500;-56
2023/04/21 09:11:04;;;;;;;12.73;8.13;;;8.20;99.90;;;;;;4999616;28;20039;-54
2023/04/21 09:13:35;;;;;;;14.43;8.30;;;8.20;99.90;;;;;;4997959;28;20100;-54
2023/04/21 09:16:13;;;;;;;16.13;8.98;;;8.20;99.90;;;;;;4997064;28;20117;-55
2023/04/21 09:18:42;;;;;;;13.50;8.88;;;8.20;99.90;;;;;;4979401;28;20046;-55
2023/04/21 09:21:13;;;;;;;13.13;8.05;;;8.20;99.90;;;;;;4999284;28;20050;-54
2023/04/21 09:23:48;;;;;;;15.65;8.30;;;8.20;99.90;;;;;;4997101;28;20402;-54
2023/04/21 09:26:15;;;;;;;14.88;8.63;;;8.20;99.90;;;;;;4996947;28;20129;-55
2023/04/21 09:28:43;;;;;;;22.92;9.60;;;8.20;99.90;;;;;;4998278;28;20049;-56
2023/04/21 09:31:14;;;;;;;22.15;9.05;;;8.10;99.90;;;;;;4648294;28;10000454;-53
2023/04/21 09:33:49;;;;;;;14.98;8.52;;;8.10;99.90;;;;;;4995247;28;20100;-55
2023/04/21 09:36:23;;;;;;;14.77;6.65;;;8.00;99.90;;;;;;5001266;28;20412;-52
2023/04/21 09:38:57;;;;;;;12.25;5.40;;;8.00;99.90;;;;;;4998294;28;20134;-58
2023/04/21 09:41:27;;;;;;;9.50;5.85;;;7.90;99.90;;;;;;4996085;28;20049;-55
2023/04/21 09:43:54;;;;;;;8.68;5.55;;;7.80;99.90;;;;;;5000027;28;20054;-52
2023/04/21 09:46:20;;;;;;;9.45;5.40;;;7.90;99.90;;;;;;4990873;28;20046;-54
2023/04/21 09:48:47;;;;;;;7.20;5.03;;;7.80;99.90;;;;;;4994096;28;20452;-55
2023/04/21 09:51:15;;;;;;;10.85;6.10;;;7.80;99.90;;;;;;5003158;28;20137;-55
2023/04/21 09:53:45;;;;;;;12.38;7.03;;;7.80;99.90;;;;;;4997302;28;20050;-55
2023/04/21 09:56:15;;;;;;;17.63;7.07;;;7.80;99.90;;;;;;5002619;28;20047;-55
2023/04/21 09:58:52;;;;;;;13.75;7.63;;;7.70;99.90;;;;;;5003744;28;20138;-55
2023/04/21 10:01:19;;;;;;;14.38;6.63;;;7.70;99.90;;;;;;4989741;28;20042;-55
2023/04/21 10:03:47;;;;;;;12.60;5.60;;;7.80;99.90;;;;;;4997251;28;20047;-55
2023/04/21 10:06:14;;;;;;;6.65;4.63;;;7.80;99.90;;;;;;5005415;28;20044;-53
2023/04/21 10:08:41;;;;;;;10.45;4.75;;;7.80;99.90;;;;;;4991843;28;20053;-55
2023/04/21 10:11:08;;;;;;;26.85;8.45;;;7.90;99.90;;;;;;5003196;28;20061;-55
2023/04/21 10:13:35;;;;;;;13.48;5.70;;;8.00;99.90;;;;;;4995842;28;20046;-55
2023/04/21 10:16:04;;;;;;;13.90;6.65;;;8.20;99.90;;;;;;4992375;28;20062;-56
2023/04/21 10:18:30;;;;;;;6.32;5.00;;;8.30;99.90;;;;;;4995086;28;20481;-56
2023/04/21 10:21:01;;;;;;;10.82;5.05;;;8.50;99.90;;;;;;4999951;28;20085;-55
2023/04/21 10:23:32;;;;;;;11.88;5.68;;;8.60;99.90;;;;;;4998872;28;20051;-55
2023/04/21 10:26:08;;;;;;;10.10;5.30;;;8.60;99.90;;;;;;4996452;28;20416;-55
2023/04/21 10:29:03;;;;;;;9.00;5.65;;;8.70;99.90;;;;;;4997104;28;20552;-57
2023/04/21 10:31:30;;;;;;;8.07;5.22;;;8.80;99.90;;;;;;4992054;28;20047;-56
2023/04/21 10:34:06;;;;;;;9.20;6.30;;;8.90;99.90;;;;;;4993993;28;20046;-54
2023/04/21 10:36:34;;;;;;;10.02;5.63;;;8.90;99.90;;;;;;5006886;28;20053;-55
2023/04/21 10:39:05;;;;;;;11.43;5.88;;;9.00;99.90;;;;;;4997533;28;20129;-53
2023/04/21 10:41:32;;;;;;;18.75;6.88;;;9.00;99.90;;;;;;4999944;28;20104;-53
2023/04/21 10:44:15;;;;;;;12.90;5.88;;;8.90;99.90;;;;;;4998072;28;20488;-54
2023/04/21 10:46:51;;;;;;;12.00;6.45;;;8.80;99.90;;;;;;4999974;28;20289;-54
2023/04/21 10:49:29;;;;;;;13.77;5.70;;;8.70;99.90;;;;;;4999497;28;20542;-57
2023/04/21 10:54:28;;;;;;;12.15;5.38;;;8.80;99.90;;;;;;5003139;28;20093;-55
2023/04/21 10:56:57;;;;;;;9.20;5.63;;;8.90;99.90;;;;;;5001757;28;20054;-55
2023/04/21 10:59:25;;;;;;;17.15;7.90;;;9.10;99.90;;;;;;5000174;28;20129;-54
2023/04/21 11:01:51;;;;;;;9.57;5.70;;;9.10;99.90;;;;;;5002477;28;20458;-55
2023/04/21 11:04:19;;;;;;;12.13;5.90;;;9.20;99.90;;;;;;5000207;28;20140;-55
2023/04/21 11:07:07;;;;;;;14.73;5.68;;;9.30;99.90;;;;;;5002553;28;20057;-55
2023/04/21 11:09:34;;;;;;;18.77;5.68;;;9.30;99.90;;;;;;4998580;28;20047;-56
2023/04/21 11:12:03;;;;;;;18.33;8.40;;;9.50;99.90;;;;;;5000689;28;20050;-56
2023/04/21 11:14:30;;;;;;;7.85;5.18;;;9.60;99.90;;;;;;4999235;28;20140;-55
2023/04/21 11:16:57;;;;;;;13.07;6.22;;;9.70;99.90;;;;;;5002192;28;20094;-55
2023/04/21 11:19:24;;;;;;;8.55;5.53;;;9.80;99.90;;;;;;4997422;28;20132;-54
2023/04/21 11:21:54;;;;;;;10.70;6.45;;;9.80;99.90;;;;;;5004129;28;20088;-56
2023/04/21 11:24:21;;;;;;;10.73;5.97;;;9.80;99.90;;;;;;4994146;28;20407;-56
2023/04/21 11:26:48;;;;;;;10.43;6.00;;;9.70;99.90;;;;;;5005216;28;20427;-55
2023/04/21 11:29:15;;;;;;;16.98;7.05;;;9.50;99.90;;;;;;5007585;28;20126;-54
2023/04/21 11:31:43;;;;;;;16.25;6.72;;;9.50;99.90;;;;;;4994602;28;20047;-55
2023/04/21 11:34:10;;;;;;;10.10;6.55;;;9.50;99.90;;;;;;5007555;28;20042;-56
2023/04/21 11:36:39;;;;;;;7.82;6.25;;;9.50;99.90;;;;;;4995091;28;20047;-54
2023/04/21 11:39:09;;;;;;;9.80;7.82;;;9.50;99.90;;;;;;5005562;28;20047;-54
2023/04/21 11:41:38;;;;;;;12.98;7.85;;;9.60;99.90;;;;;;4995440;28;20101;-54
2023/04/21 11:44:06;;;;;;;11.45;7.82;;;9.60;99.90;;;;;;5003710;28;20125;-55
2023/04/21 11:46:35;;;;;;;10.48;8.23;;;9.60;99.90;;;;;;4996754;28;20130;-56
2023/04/21 11:49:06;;;;;;;10.48;8.30;;;9.60;99.90;;;;;;5003897;28;20053;-53
2023/04/21 11:51:37;;;;;;;13.48;8.95;;;9.70;99.90;;;;;;5001529;28;20676;-55
2023/04/21 11:54:05;;;;;;;12.43;8.60;;;9.70;99.90;;;;;;5005594;28;20046;-55
2023/04/21 11:56:36;;;;;;;11.68;9.02;;;9.70;99.90;;;;;;4999326;28;20521;-54
2023/04/21 11:59:14;;;;;;;9.88;8.57;;;9.80;99.90;;;;;;4999662;28;20491;-55
2023/04/21 12:01:47;;;;;;;10.45;7.75;;;10.00;99.90;;;;;;4999336;28;20049;-56
2023/04/21 12:04:15;;;;;;;;;;;10.20;99.90;;;;;;5001140;28;20092;-55
2023/04/21 12:06:46;;;;;;;13.60;7.78;;;10.30;99.90;;;;;;5000452;28;19932;-54
2023/04/21 12:09:19;;;;;;;10.25;7.65;;;10.50;99.90;;;;;;4994162;28;20050;-55
2023/04/21 12:11:47;;;;;;;9.73;7.93;;;10.70;99.90;;;;;;4998623;28;20397;-52
2023/04/21 12:14:16;;;;;;;9.15;7.28;;;10.80;99.90;;;;;;5000837;28;20082;-52
2023/04/21 12:16:43;;;;;;;8.45;6.82;;;10.90;99.90;;;;;;4998358;28;20479;-52
2023/04/21 12:19:10;;;;;;;9.98;7.63;;;10.90;99.90;;;;;;4999641;28;20381;-55
2023/04/21 12:21:39;;;;;;;8.52;6.93;;;10.90;99.90;;;;;;4996108;28;20045;-55
2023/04/21 12:24:06;;;;;;;9.57;6.93;;;10.80;99.90;;;;;;4997356;28;20399;-54
2023/04/21 12:26:33;;;;;;;9.48;7.97;;;10.70;99.90;;;;;;5002966;28;20065;-53
2023/04/21 12:29:00;;;;;;;11.13;8.15;;;10.80;99.90;;;;;;4995020;28;20053;-55
2023/04/21 12:31:26;;;;;;;7.97;7.18;;;10.90;99.90;;;;;;5003856;28;20048;-54
2023/04/21 12:33:53;;;;;;;13.25;8.73;;;11.00;99.90;;;;;;4993768;28;20057;-55
2023/04/21 12:36:20;;;;;;;10.60;8.95;;;11.00;99.90;;;;;;5006745;28;20516;-52
2023/04/21 12:38:47;;;;;;;12.38;9.57;;;11.10;99.90;;;;;;4997072;28;20461;-53
2023/04/21 12:41:14;;;;;;;11.70;9.77;;;11.20;99.90;;;;;;5007375;28;20065;-54
2023/04/21 12:43:41;;;;;;;12.73;9.43;;;11.20;99.90;;;;;;4993628;28;20068;-53
2023/04/21 12:46:07;;;;;;;13.43;10.73;;;11.30;99.90;;;;;;5003118;28;20343;-55
2023/04/21 12:48:34;;;;;;;11.05;9.52;;;11.40;99.90;;;;;;4998168;28;20365;-55